sensor_id;sensor_type;location;lat;lon;timestamp;pressure;altitude;pressure_sealevel;temperature;humidity
15260;BME280;34462;51.368;12.364;2024-03-02T00:01:45;106441.06;;;-141.84;100.00
15260;BME280;34462;51.368;12.364;2024-03-02T00:04:13;102986.25;;;-141.84;100.00
15260;BME280;34462;51.368;12.364;2024-03-02T00:06:43;102986.25;;;-141.84;100.00
15260;BME280;34462;51.368;12.364;2024-03-02T00:09:12;102720.59;;;-141.84;100.00
15260;BME280;34462;51.368;12.364;2024-03-02T00:11:47;98207.50;;;-141.84;99.23
15260;BME280;34462;51.368;12.364;2024-03-02T00:14:16;95289.94;;;-141.84;98.00
15260;BME280;34462;51.368;12.364;2024-03-02T00:16:54;93169.38;;;-141.84;97.37
15260;BME280;34462;51.368;12.364;2024-03-02T00:19:23;90785.09;;;-141.84;96.15
15260;BME280;34462;51.368;12.364;2024-03-02T00:21:52;92904.41;;;-141.84;97.34
15260;BME280;34462;51.368;12.364;2024-03-02T00:24:32;100861.66;;;-141.84;100.00
15260;BME280;34462;51.368;12.364;2024-03-02T00:27:08;106706.94;;;-141.84;100.00
15260;BME280;34462;51.368;12.364;2024-03-02T00:29:43;110431.03;;;-141.84;100.00
15260;BME280;34462;51.368;12.364;2024-03-02T00:32:15;112294.34;;;-141.84;100.00
15260;BME280;34462;51.368;12.364;2024-03-02T00:34:48;114424.91;;;-141.84;100.00
15260;BME280;34462;51.368;12.364;2024-03-02T00:37:17;116023.56;;;-141.84;100.00
15260;BME280;34462;51.368;12.364;2024-03-02T00:39:50;117356.25;;;-141.84;100.00
15260;BME280;34462;51.368;12.364;2024-03-02T00:42:23;118422.72;;;-141.84;100.00
15260;BME280;34462;51.368;12.364;2024-03-02T00:44:51;118956.03;;;-141.84;100.00
15260;BME280;34462;51.368;12.364;2024-03-02T00:47:23;119222.75;;;-141.84;100.00
15260;BME280;34462;51.368;12.364;2024-03-02T00:49:52;119224.81;;;-141.84;100.00
15260;BME280;34462;51.368;12.364;2024-03-02T00:52:24;119224.81;;;-141.84;100.00
15260;BME280;34462;51.368;12.364;2024-03-02T00:54:53;119224.81;;;-141.84;100.00
15260;BME280;34462;51.368;12.364;2024-03-02T00:57:33;119224.81;;;-141.84;100.00
15260;BME280;34462;51.368;12.364;2024-03-02T01:00:04;119224.81;;;-141.84;100.00
15260;BME280;34462;51.368;12.364;2024-03-02T01:02:44;119224.81;;;-141.84;100.00
15260;BME280;34462;51.368;12.364;2024-03-02T01:05:13;119224.81;;;-141.84;100.00
15260;BME280;34462;51.368;12.364;2024-03-02T01:07:43;119224.81;;;-141.84;100.00
15260;BME280;34462;51.368;12.364;2024-03-02T01:10:12;119224.81;;;-141.84;100.00
15260;BME280;34462;51.368;12.364;2024-03-02T01:12:43;119224.81;;;-141.84;100.00
15260;BME280;34462;51.368;12.364;2024-03-02T01:15:12;119224.81;;;-141.84;100.00
15260;BME280;34462;51.368;12.364;2024-03-02T01:17:45;119224.81;;;-141.84;100.00
15260;BME280;34462;51.368;12.364;2024-03-02T01:20:13;119224.81;;;-141.84;100.00
15260;BME280;34462;51.368;12.364;2024-03-02T01:22:45;119224.81;;;-141.84;100.00
15260;BME280;34462;51.368;12.364;2024-03-02T01:25:14;119224.81;;;-141.84;100.00
15260;BME280;34462;51.368;12.364;2024-03-02T01:27:43;119224.81;;;-141.84;100.00
15260;BME280;34462;51.368;12.364;2024-03-02T01:30:16;119224.81;;;-141.84;100.00
15260;BME280;34462;51.368;12.364;2024-03-02T01:32:50;119224.81;;;-141.84;100.00
15260;BME280;34462;51.368;12.364;2024-03-02T01:35:23;119224.81;;;-141.84;100.00
15260;BME280;34462;51.368;12.364;2024-03-02T01:37:51;119224.81;;;-141.84;100.00
15260;BME280;34462;51.368;12.364;2024-03-02T01:40:23;119224.81;;;-141.84;100.00
15260;BME280;34462;51.368;12.364;2024-03-02T01:42:54;119224.81;;;-141.84;100.00
15260;BME280;34462;51.368;12.364;2024-03-02T01:45:29;119224.81;;;-141.84;100.00
15260;BME280;34462;51.368;12.364;2024-03-02T01:48:04;119224.81;;;-141.84;100.00
15260;BME280;34462;51.368;12.364;2024-03-02T01:50:33;119224.81;;;-141.84;100.00
15260;BME280;34462;51.368;12.364;2024-03-02T01:53:04;119224.81;;;-141.84;100.00
15260;BME280;34462;51.368;12.364;2024-03-02T01:55:32;118422.72;;;-141.84;100.00
15260;BME280;34462;51.368;12.364;2024-03-02T01:58:04;116823.13;;;-141.84;100.00
15260;BME280;34462;51.368;12.364;2024-03-02T02:00:32;114691.31;;;-141.84;100.00
15260;BME280;34462;51.368;12.364;2024-03-02T02:03:04;110164.91;;;-141.84;100.00
15260;BME280;34462;51.368;12.364;2024-03-02T02:05:33;113625.81;;;-141.84;100.00
15260;BME280;34462;51.368;12.364;2024-03-02T02:08:04;116556.59;;;-141.84;100.00
15260;BME280;34462;51.368;12.364;2024-03-02T02:10:33;117622.84;;;-141.84;100.00
15260;BME280;34462;51.368;12.364;2024-03-02T02:13:04;118156.06;;;-141.84;100.00
15260;BME280;34462;51.368;12.364;2024-03-02T02:15:32;118689.38;;;-141.84;100.00
15260;BME280;34462;51.368;12.364;2024-03-02T02:18:05;116023.56;;;-141.84;100.00
15260;BME280;34462;51.368;12.364;2024-03-02T02:20:33;112028.13;;;-141.84;100.00
15260;BME280;34462;51.368;12.364;2024-03-02T02:23:05;112294.34;;;-141.84;100.00
15260;BME280;34462;51.368;12.364;2024-03-02T02:25:35;111229.50;;;-141.84;100.00
15260;BME280;34462;51.368;12.364;2024-03-02T02:28:04;111495.69;;;-141.84;100.00
15260;BME280;34462;51.368;12.364;2024-03-02T02:30:33;113625.81;;;-141.84;100.00
15260;BME280;34462;51.368;12.364;2024-03-02T02:33:04;112028.13;;;-141.84;100.00
15260;BME280;34462;51.368;12.364;2024-03-02T02:35:32;110697.16;;;-141.84;100.00
15260;BME280;34462;51.368;12.364;2024-03-02T02:38:05;107770.63;;;-141.84;100.00
15260;BME280;34462;51.368;12.364;2024-03-02T02:40:33;101127.16;;;-141.84;100.00
15260;BME280;34462;51.368;12.364;2024-03-02T02:43:04;96881.06;;;-141.84;98.85
15260;BME280;34462;51.368;12.364;2024-03-02T02:45:33;100861.66;;;-141.84;100.00
15260;BME280;34462;51.368;12.364;2024-03-02T02:48:04;106441.06;;;-141.84;100.00
15260;BME280;34462;51.368;12.364;2024-03-02T02:50:33;108568.56;;;-141.84;100.00
15260;BME280;34462;51.368;12.364;2024-03-02T02:53:05;111229.50;;;-141.84;100.00
15260;BME280;34462;51.368;12.364;2024-03-02T02:55:36;112560.63;;;-141.84;100.00
15260;BME280;34462;51.368;12.364;2024-03-02T02:58:10;109100.59;;;-141.84;100.00
15260;BME280;34462;51.368;12.364;2024-03-02T03:00:43;106441.06;;;-141.84;100.00
15260;BME280;34462;51.368;12.364;2024-03-02T03:03:11;108834.56;;;-141.84;100.00
15260;BME280;34462;51.368;12.364;2024-03-02T03:05:43;110963.31;;;-141.84;100.00
15260;BME280;34462;51.368;12.364;2024-03-02T03:08:12;112826.88;;;-141.84;100.00
15260;BME280;34462;51.368;12.364;2024-03-02T03:10:44;110164.91;;;-141.84;100.00
15260;BME280;34462;51.368;12.364;2024-03-02T03:13:12;109366.66;;;-141.84;100.00
15260;BME280;34462;51.368;12.364;2024-03-02T03:15:44;109100.59;;;-141.84;100.00
15260;BME280;34462;51.368;12.364;2024-03-02T03:18:12;107238.72;;;-141.84;100.00
15260;BME280;34462;51.368;12.364;2024-03-02T03:20:43;107238.72;;;-141.84;100.00
15260;BME280;34462;51.368;12.364;2024-03-02T03:23:13;104314.66;;;-141.84;100.00
15260;BME280;34462;51.368;12.364;2024-03-02T03:25:44;107504.66;;;-141.84;100.00
15260;BME280;34462;51.368;12.364;2024-03-02T03:28:12;108568.56;;;-141.84;100.00
15260;BME280;34462;51.368;12.364;2024-03-02T03:30:43;106972.81;;;-141.84;100.00
15260;BME280;34462;51.368;12.364;2024-03-02T03:33:11;108834.56;;;-141.84;100.00
15260;BME280;34462;51.368;12.364;2024-03-02T03:35:43;112028.13;;;-141.84;100.00
15260;BME280;34462;51.368;12.364;2024-03-02T03:38:13;114691.31;;;-141.84;100.00
15260;BME280;34462;51.368;12.364;2024-03-02T03:40:44;116023.56;;;-141.84;100.00
15260;BME280;34462;51.368;12.364;2024-03-02T03:43:12;109366.66;;;-141.84;100.00
15260;BME280;34462;51.368;12.364;2024-03-02T03:45:43;109632.72;;;-141.84;100.00
15260;BME280;34462;51.368;12.364;2024-03-02T03:48:12;110963.31;;;-141.84;100.00
15260;BME280;34462;51.368;12.364;2024-03-02T03:50:43;108302.56;;;-141.84;100.00
15260;BME280;34462;51.368;12.364;2024-03-02T03:53:13;107238.72;;;-141.84;100.00
15260;BME280;34462;51.368;12.364;2024-03-02T03:55:44;106175.19;;;-141.84;100.00
15260;BME280;34462;51.368;12.364;2024-03-02T03:58:13;106972.81;;;-141.84;100.00
15260;BME280;34462;51.368;12.364;2024-03-02T04:00:49;109100.59;;;-141.84;100.00
15260;BME280;34462;51.368;12.364;2024-03-02T04:03:17;109366.66;;;-141.84;100.00
15260;BME280;34462;51.368;12.364;2024-03-02T04:05:50;108036.56;;;-141.84;100.00
15260;BME280;34462;51.368;12.364;2024-03-02T04:08:23;108302.56;;;-141.84;100.00
15260;BME280;34462;51.368;12.364;2024-03-02T04:10:52;108834.56;;;-141.84;100.00
15260;BME280;34462;51.368;12.364;2024-03-02T04:13:23;106441.06;;;-141.84;100.00
15260;BME280;34462;51.368;12.364;2024-03-02T04:15:52;94759.69;;;-141.84;97.08
15260;BME280;34462;51.368;12.364;2024-03-02T04:18:23;91049.97;;;-141.84;96.88
15260;BME280;34462;51.368;12.364;2024-03-02T04:20:52;98207.50;;;-141.84;99.93
15260;BME280;34462;51.368;12.364;2024-03-02T04:23:25;104846.16;;;-141.84;100.00
15260;BME280;34462;51.368;12.364;2024-03-02T04:25:53;107770.63;;;-141.84;100.00
15260;BME280;34462;51.368;12.364;2024-03-02T04:28:23;107504.66;;;-141.84;100.00
15260;BME280;34462;51.368;12.364;2024-03-02T04:30:51;104580.41;;;-141.84;100.00
15260;BME280;34462;51.368;12.364;2024-03-02T04:33:23;107770.63;;;-141.84;100.00
15260;BME280;34462;51.368;12.364;2024-03-02T04:35:51;107770.63;;;-141.84;100.00
15260;BME280;34462;51.368;12.364;2024-03-02T04:38:25;108834.56;;;-141.84;100.00
15260;BME280;34462;51.368;12.364;2024-03-02T04:40:53;109100.59;;;-141.84;100.00
15260;BME280;34462;51.368;12.364;2024-03-02T04:43:24;110431.03;;;-141.84;100.00
15260;BME280;34462;51.368;12.364;2024-03-02T04:45:52;107238.72;;;-141.84;100.00
15260;BME280;34462;51.368;12.364;2024-03-02T04:48:23;103251.88;;;-141.84;100.00
15260;BME280;34462;51.368;12.364;2024-03-02T04:50:52;103783.25;;;-141.84;100.00
15260;BME280;34462;51.368;12.364;2024-03-02T04:53:24;104580.41;;;-141.84;100.00
15260;BME280;34462;51.368;12.364;2024-03-02T04:55:53;104314.66;;;-141.84;100.00
15260;BME280;34462;51.368;12.364;2024-03-02T04:58:54;104048.94;;;-141.84;100.00
15260;BME280;34462;51.368;12.364;2024-03-02T05:01:24;106175.19;;;-141.84;100.00
15260;BME280;34462;51.368;12.364;2024-03-02T05:03:52;106972.81;;;-141.84;100.00
15260;BME280;34462;51.368;12.364;2024-03-02T05:06:23;107504.66;;;-141.84;100.00
15260;BME280;34462;51.368;12.364;2024-03-02T05:08:53;109366.66;;;-141.84;100.00
15260;BME280;34462;51.368;12.364;2024-03-02T05:11:24;110431.03;;;-141.84;100.00
15260;BME280;34462;51.368;12.364;2024-03-02T05:14:23;109632.72;;;-141.84;100.00
15260;BME280;34462;51.368;12.364;2024-03-02T05:16:52;111761.88;;;-141.84;100.00
15260;BME280;34462;51.368;12.364;2024-03-02T05:19:23;111761.88;;;-141.84;100.00
15260;BME280;34462;51.368;12.364;2024-03-02T05:21:52;111229.50;;;-141.84;100.00
15260;BME280;34462;51.368;12.364;2024-03-02T05:24:25;108302.56;;;-141.84;100.00
15260;BME280;34462;51.368;12.364;2024-03-02T05:26:55;106972.81;;;-141.84;100.00
15260;BME280;34462;51.368;12.364;2024-03-02T05:29:24;108568.56;;;-141.84;100.00
15260;BME280;34462;51.368;12.364;2024-03-02T05:31:52;108302.56;;;-141.84;100.00
15260;BME280;34462;51.368;12.364;2024-03-02T05:34:23;102455.00;;;-141.84;100.00
15260;BME280;34462;51.368;12.364;2024-03-02T05:36:52;103783.25;;;-141.84;100.00
15260;BME280;34462;51.368;12.364;2024-03-02T05:39:25;104580.41;;;-141.84;100.00
15260;BME280;34462;51.368;12.364;2024-03-02T05:41:53;105643.53;;;-141.84;100.00
15260;BME280;34462;51.368;12.364;2024-03-02T05:44:24;107238.72;;;-141.84;100.00
15260;BME280;34462;51.368;12.364;2024-03-02T05:46:52;95820.25;;;-141.84;97.98
15260;BME280;34462;51.368;12.364;2024-03-02T05:49:24;92904.41;;;-141.84;97.29
15260;BME280;34462;51.368;12.364;2024-03-02T05:51:52;93169.38;;;-141.84;97.28
15260;BME280;34462;51.368;12.364;2024-03-02T05:54:25;85227.25;;;-141.84;94.26
15260;BME280;34462;51.368;12.364;2024-03-02T05:56:53;84433.91;;;-141.84;94.67
15260;BME280;34462;51.368;12.364;2024-03-02T05:59:24;83640.72;;;-141.84;94.33
15260;BME280;34462;51.368;12.364;2024-03-02T06:01:52;82054.78;;;-141.84;93.00
15260;BME280;34462;51.368;12.364;2024-03-02T06:04:23;71761.53;;;-141.84;90.67
15260;BME280;34462;51.368;12.364;2024-03-02T06:06:51;64387.81;;;-141.84;89.48
15260;BME280;34462;51.368;12.364;2024-03-02T06:09:25;61494.72;;;-141.84;88.40
15260;BME280;34462;51.368;12.364;2024-03-02T06:11:53;68863.09;;;-141.84;90.55
15260;BME280;34462;51.368;12.364;2024-03-02T06:14:24;75717.34;;;-141.84;91.92
15260;BME280;34462;51.368;12.364;2024-03-02T06:16:52;80205.34;;;-141.84;93.05
15260;BME280;34462;51.368;12.364;2024-03-02T06:19:26;84433.91;;;-141.84;94.24
15260;BME280;34462;51.368;12.364;2024-03-02T06:21:55;89196.38;;;-141.84;96.08
15260;BME280;34462;51.368;12.364;2024-03-02T06:24:25;94494.59;;;-141.84;98.05
15260;BME280;34462;51.368;12.364;2024-03-02T06:26:53;96350.63;;;-141.84;98.70
15260;BME280;34462;51.368;12.364;2024-03-02T06:29:24;98738.19;;;-141.84;99.59
15260;BME280;34462;51.368;12.364;2024-03-02T06:31:52;91314.81;;;-141.84;96.55
15260;BME280;34462;51.368;12.364;2024-03-02T06:34:24;91049.97;;;-141.84;95.67
15260;BME280;34462;51.368;12.364;2024-03-02T06:36:52;71234.38;;;-141.84;90.14
15260;BME280;34462;51.368;12.364;2024-03-02T06:39:25;58866.47;;;-141.84;87.58
15260;BME280;34462;51.368;12.364;2024-03-02T06:41:53;48632.88;;;-141.84;86.02
15260;BME280;34462;51.368;12.364;2024-03-02T06:44:24;39716.53;;;-141.84;84.64
15260;BME280;34462;51.368;12.364;2024-03-02T06:46:52;47060.84;;;-141.84;85.88
15260;BME280;34462;51.368;12.364;2024-03-02T06:49:24;59654.75;;;-141.84;88.13
15260;BME280;34462;51.368;12.364;2024-03-02T06:51:52;50992.13;;;-141.84;85.91
15260;BME280;34462;51.368;12.364;2024-03-02T06:54:25;53352.78;;;-141.84;87.10
15260;BME280;34462;51.368;12.364;2024-03-02T06:56:53;43656.88;;;-141.84;85.00
15260;BME280;34462;51.368;12.364;2024-03-02T06:59:24;42871.75;;;-141.84;85.38
15260;BME280;34462;51.368;12.364;2024-03-02T07:01:52;58341.03;;;-141.84;87.90
15260;BME280;34462;51.368;12.364;2024-03-02T07:04:23;50205.56;;;-141.84;86.00
15260;BME280;34462;51.368;12.364;2024-03-02T07:06:51;48894.97;;;-141.84;86.14
15260;BME280;34462;51.368;12.364;2024-03-02T07:09:25;55452.34;;;-141.84;87.14
15260;BME280;34462;51.368;12.364;2024-03-02T07:11:53;48894.97;;;-141.84;86.07
15260;BME280;34462;51.368;12.364;2024-03-02T07:14:24;58866.47;;;-141.84;87.66
15260;BME280;34462;51.368;12.364;2024-03-02T07:17:12;53877.56;;;-141.84;86.82
15260;BME280;34462;51.368;12.364;2024-03-02T07:19:43;60706.06;;;-141.84;88.18
15260;BME280;34462;51.368;12.364;2024-03-02T07:22:12;62020.59;;;-141.84;88.29
15260;BME280;34462;51.368;12.364;2024-03-02T07:24:44;65440.38;;;-141.84;88.87
15260;BME280;34462;51.368;12.364;2024-03-02T07:27:13;61757.66;;;-141.84;88.13
15260;BME280;34462;51.368;12.364;2024-03-02T07:29:44;50729.94;;;-141.84;86.04
15260;BME280;34462;51.368;12.364;2024-03-02T07:32:12;50467.75;;;-141.84;86.20
15260;BME280;34462;51.368;12.364;2024-03-02T07:34:44;52828.09;;;-141.84;86.66
15260;BME280;34462;51.368;12.364;2024-03-02T07:37:12;55452.34;;;-141.84;86.79
15260;BME280;34462;51.368;12.364;2024-03-02T07:39:44;51778.88;;;-141.84;86.21
15260;BME280;34462;51.368;12.364;2024-03-02T07:42:13;45489.41;;;-141.84;85.27
15260;BME280;34462;51.368;12.364;2024-03-02T07:44:44;32816.16;;;-141.84;83.32
15260;BME280;34462;51.368;12.364;2024-03-02T07:47:12;31833.41;;;-141.84;83.29
15260;BME280;34462;51.368;12.364;2024-03-02T07:49:44;29707.69;;;-141.84;82.83
15260;BME280;34462;51.368;12.364;2024-03-02T07:52:13;24088.19;;;-141.84;81.55
15260;BME280;34462;51.368;12.364;2024-03-02T07:54:45;26131.47;;;-141.84;82.01
15260;BME280;34462;51.368;12.364;2024-03-02T07:57:13;25372.22;;;-141.84;81.87
15260;BME280;34462;51.368;12.364;2024-03-02T07:59:44;22774.06;;;-141.84;81.10
15260;BME280;34462;51.368;12.364;2024-03-02T08:02:12;23121.88;;;-141.84;81.15
15260;BME280;34462;51.368;12.364;2024-03-02T08:04:43;20175.63;;;-141.84;79.15
15260;BME280;34462;51.368;12.364;2024-03-02T08:07:13;19793.50;;;-141.84;78.94
15260;BME280;34462;51.368;12.364;2024-03-02T08:09:45;18988.78;;;-141.84;77.39
15260;BME280;34462;51.368;12.364;2024-03-02T08:12:13;18679.94;;;-141.84;76.33
15260;BME280;34462;51.368;12.364;2024-03-02T08:14:44;18537.72;;;-141.84;75.26
15260;BME280;34462;51.368;12.364;2024-03-02T08:17:12;18598.69;;;-141.84;75.89
15260;BME280;34462;51.368;12.364;2024-03-02T08:19:44;18627.13;;;-141.84;75.80
15260;BME280;34462;51.368;12.364;2024-03-02T08:22:13;18708.41;;;-141.84;76.18
15260;BME280;34462;51.368;12.364;2024-03-02T08:24:45;18578.38;;;-141.84;75.13
15260;BME280;34462;51.368;12.364;2024-03-02T08:27:14;18645.41;;;-141.84;75.29
15260;BME280;34462;51.368;12.364;2024-03-02T08:29:44;18669.78;;;-141.84;75.81
15260;BME280;34462;51.368;12.364;2024-03-02T08:32:12;18779.50;;;-141.84;76.26
15260;BME280;34462;51.368;12.364;2024-03-02T08:34:44;18783.56;;;-141.84;76.15
15260;BME280;34462;51.368;12.364;2024-03-02T08:37:12;18671.81;;;-141.84;75.54
15260;BME280;34462;51.368;12.364;2024-03-02T08:39:46;18643.38;;;-141.84;75.45
15260;BME280;34462;51.368;12.364;2024-03-02T08:42:15;18684.00;;;-141.84;75.31
15260;BME280;34462;51.368;12.364;2024-03-02T08:44:44;18649.47;;;-141.84;75.01
15260;BME280;34462;51.368;12.364;2024-03-02T08:47:13;18509.28;;;-141.84;73.91
15260;BME280;34462;51.368;12.364;2024-03-02T08:49:44;18560.06;;;-141.84;73.80
15260;BME280;34462;51.368;12.364;2024-03-02T08:52:12;18509.28;;;-141.84;73.04
15260;BME280;34462;51.368;12.364;2024-03-02T08:54:44;18438.19;;;-141.84;71.83
15260;BME280;34462;51.368;12.364;2024-03-02T08:57:14;18417.84;;;-141.84;70.53
15260;BME280;34462;51.368;12.364;2024-03-02T08:59:44;18440.22;;;-141.84;70.99
15260;BME280;34462;51.368;12.364;2024-03-02T09:02:12;18432.09;;;-141.84;70.20
15260;BME280;34462;51.368;12.364;2024-03-02T09:04:44;18407.69;;;-141.84;68.52
15260;BME280;34462;51.368;12.364;2024-03-02T09:07:12;18407.69;;;-141.84;69.20
15260;BME280;34462;51.368;12.364;2024-03-02T09:09:43;18423.94;;;-141.84;69.27
15260;BME280;34462;51.368;12.364;2024-03-02T09:12:13;18436.16;;;-141.84;69.11
15260;BME280;34462;51.368;12.364;2024-03-02T09:14:44;18395.50;;;-141.84;67.68
15260;BME280;34462;51.368;12.364;2024-03-02T09:17:13;18442.25;;;-141.84;67.73
15260;BME280;34462;51.368;12.364;2024-03-02T09:19:44;18438.19;;;-141.84;66.82
15260;BME280;34462;51.368;12.364;2024-03-02T09:22:12;18421.91;;;-141.84;67.17
15260;BME280;34462;51.368;12.364;2024-03-02T09:24:44;18495.06;;;-141.84;67.49
15260;BME280;34462;51.368;12.364;2024-03-02T09:27:13;18486.94;;;-141.84;66.22
15260;BME280;34462;51.368;12.364;2024-03-02T09:29:44;18456.47;;;-141.84;64.71
15260;BME280;34462;51.368;12.364;2024-03-02T09:32:13;18497.09;;;-141.84;64.10
15260;BME280;34462;51.368;12.364;2024-03-02T09:34:44;18464.59;;;-141.84;64.83
15260;BME280;34462;51.368;12.364;2024-03-02T09:37:12;18476.78;;;-141.84;63.99
15260;BME280;34462;51.368;12.364;2024-03-02T09:39:44;18458.50;;;-141.84;63.25
15260;BME280;34462;51.368;12.364;2024-03-02T09:42:14;18460.53;;;-141.84;62.95
15260;BME280;34462;51.368;12.364;2024-03-02T09:44:44;18493.03;;;-141.84;62.50
15260;BME280;34462;51.368;12.364;2024-03-02T09:47:13;18511.31;;;-141.84;61.81
15260;BME280;34462;51.368;12.364;2024-03-02T09:49:44;18525.53;;;-141.84;61.34
15260;BME280;34462;51.368;12.364;2024-03-02T09:52:13;18515.38;;;-141.84;61.36
15260;BME280;34462;51.368;12.364;2024-03-02T09:54:44;18521.47;;;-141.84;61.26
15260;BME280;34462;51.368;12.364;2024-03-02T09:57:14;18517.41;;;-141.84;60.95
15260;BME280;34462;51.368;12.364;2024-03-02T09:59:44;18511.31;;;-141.84;61.96
15260;BME280;34462;51.368;12.364;2024-03-02T10:02:12;18533.66;;;-141.84;61.69
15260;BME280;34462;51.368;12.364;2024-03-02T10:04:44;18529.59;;;-141.84;61.26
15260;BME280;34462;51.368;12.364;2024-03-02T10:07:15;18521.47;;;-141.84;61.05
15260;BME280;34462;51.368;12.364;2024-03-02T10:09:48;18523.50;;;-141.84;61.64
15260;BME280;34462;51.368;12.364;2024-03-02T10:12:18;18547.88;;;-141.84;62.05
15260;BME280;34462;51.368;12.364;2024-03-02T10:15:04;18521.47;;;-141.84;61.52
15260;BME280;34462;51.368;12.364;2024-03-02T10:17:34;18535.69;;;-141.84;61.86
15260;BME280;34462;51.368;12.364;2024-03-02T10:20:24;18574.28;;;-141.84;61.61
15260;BME280;34462;51.368;12.364;2024-03-02T10:22:52;18572.25;;;-141.84;60.25
15260;BME280;34462;51.368;12.364;2024-03-02T10:25:30;18643.38;;;-141.84;57.43
15260;BME280;34462;51.368;12.364;2024-03-02T10:28:18;18712.47;;;-141.84;55.97
15260;BME280;34462;51.368;12.364;2024-03-02T10:30:51;18679.94;;;-141.84;55.83
15260;BME280;34462;51.368;12.364;2024-03-02T10:33:24;18655.56;;;-141.84;54.79
15260;BME280;34462;51.368;12.364;2024-03-02T10:35:53;18712.47;;;-141.84;55.13
15260;BME280;34462;51.368;12.364;2024-03-02T10:38:24;18759.19;;;-141.84;53.51
15260;BME280;34462;51.368;12.364;2024-03-02T10:40:53;18757.16;;;-141.84;53.79
15260;BME280;34462;51.368;12.364;2024-03-02T10:43:26;18781.53;;;-141.84;53.20
15260;BME280;34462;51.368;12.364;2024-03-02T10:45:55;18838.44;;;-141.84;52.02
15260;BME280;34462;51.368;12.364;2024-03-02T10:48:26;18848.59;;;-141.84;51.01
15260;BME280;34462;51.368;12.364;2024-03-02T10:50:55;18858.75;;;-141.84;50.53
15260;BME280;34462;51.368;12.364;2024-03-02T10:53:26;18785.59;;;-141.84;51.33
15260;BME280;34462;51.368;12.364;2024-03-02T10:55:58;18783.56;;;-141.84;52.10
15260;BME280;34462;51.368;12.364;2024-03-02T10:58:32;18785.59;;;-141.84;52.27
15260;BME280;34462;51.368;12.364;2024-03-02T11:01:03;18785.59;;;-141.84;52.56
15260;BME280;34462;51.368;12.364;2024-03-02T11:03:35;18832.34;;;-141.84;51.63
15260;BME280;34462;51.368;12.364;2024-03-02T11:06:08;18807.94;;;-141.84;51.25
15260;BME280;34462;51.368;12.364;2024-03-02T11:08:41;18862.81;;;-141.84;51.20
15260;BME280;34462;51.368;12.364;2024-03-02T11:11:15;18858.75;;;-141.84;50.27
15260;BME280;34462;51.368;12.364;2024-03-02T11:13:51;18870.94;;;-141.84;49.43
15260;BME280;34462;51.368;12.364;2024-03-02T11:16:32;18852.66;;;-141.84;49.52
15260;BME280;34462;51.368;12.364;2024-03-02T11:19:05;18917.66;;;-141.84;49.08
15260;BME280;34462;51.368;12.364;2024-03-02T11:21:35;18846.56;;;-141.84;49.89
15260;BME280;34462;51.368;12.364;2024-03-02T11:24:29;18816.06;;;-141.84;50.31
15260;BME280;34462;51.368;12.364;2024-03-02T11:27:07;18858.75;;;-141.84;50.08
15260;BME280;34462;51.368;12.364;2024-03-02T11:29:46;18860.78;;;-141.84;50.38
15260;BME280;34462;51.368;12.364;2024-03-02T11:32:19;18826.25;;;-141.84;50.82
15260;BME280;34462;51.368;12.364;2024-03-02T11:34:52;18850.63;;;-141.84;50.57
15260;BME280;34462;51.368;12.364;2024-03-02T11:37:25;18858.75;;;-141.84;50.54
15260;BME280;34462;51.368;12.364;2024-03-02T11:39:53;18820.16;;;-141.84;51.04
15260;BME280;34462;51.368;12.364;2024-03-02T11:42:25;18848.59;;;-141.84;51.12
15260;BME280;34462;51.368;12.364;2024-03-02T11:44:57;18856.72;;;-141.84;51.10
15260;BME280;34462;51.368;12.364;2024-03-02T11:47:32;18830.31;;;-141.84;50.52
15260;BME280;34462;51.368;12.364;2024-03-02T11:50:05;18848.59;;;-141.84;50.97
15260;BME280;34462;51.368;12.364;2024-03-02T11:52:35;18856.72;;;-141.84;51.25
15260;BME280;34462;51.368;12.364;2024-03-02T11:55:05;18870.94;;;-141.84;49.79
15260;BME280;34462;51.368;12.364;2024-03-02T11:57:36;18903.44;;;-141.84;49.85
15260;BME280;34462;51.368;12.364;2024-03-02T12:00:21;18881.09;;;-141.84;49.76
15260;BME280;34462;51.368;12.364;2024-03-02T12:03:01;18887.19;;;-141.84;49.88
15260;BME280;34462;51.368;12.364;2024-03-02T12:05:32;18907.50;;;-141.84;49.14
15260;BME280;34462;51.368;12.364;2024-03-02T12:08:06;18917.66;;;-141.84;49.30
15260;BME280;34462;51.368;12.364;2024-03-02T12:10:36;18895.31;;;-141.84;49.14
15260;BME280;34462;51.368;12.364;2024-03-02T12:13:07;18903.44;;;-141.84;49.52
15260;BME280;34462;51.368;12.364;2024-03-02T12:15:43;18899.38;;;-141.84;50.25
15260;BME280;34462;51.368;12.364;2024-03-02T12:18:12;18883.13;;;-141.84;49.79
15260;BME280;34462;51.368;12.364;2024-03-02T12:20:44;18940.03;;;-141.84;49.21
15260;BME280;34462;51.368;12.364;2024-03-02T12:23:13;18948.16;;;-141.84;48.93
15260;BME280;34462;51.368;12.364;2024-03-02T12:25:45;18954.25;;;-141.84;48.60
15260;BME280;34462;51.368;12.364;2024-03-02T12:28:13;18956.28;;;-141.84;48.49
15260;BME280;34462;51.368;12.364;2024-03-02T12:30:46;18976.59;;;-141.84;48.17
15260;BME280;34462;51.368;12.364;2024-03-02T12:33:16;19003.00;;;-141.84;48.01
15260;BME280;34462;51.368;12.364;2024-03-02T12:35:46;18992.84;;;-141.84;47.81
15260;BME280;34462;51.368;12.364;2024-03-02T12:38:15;18990.81;;;-141.84;48.32
15260;BME280;34462;51.368;12.364;2024-03-02T12:40:44;18978.63;;;-141.84;48.41
15260;BME280;34462;51.368;12.364;2024-03-02T12:43:13;18980.66;;;-141.84;47.78